• Join FlightAware (Why Join?)
  • Login
  • US Flag 
07:08AM EDT


 

Airport Tracker/Info


-or-


 

Live Flight TrackerFlight Track Log ✈ N721CT ✈ 07-May-2013 ✈ KRVS - KADS

Flight Track Log - Related Links

Times and Time Zones

All times are in EDT time to prevent confusion due to time zone crossing. See the N721CT flight status page for this flight to view local times or setup timezone preferences in your user account.

Time Position Orientation Groundspeed Altitude Reporting Facility
EDT Latitude Longitude Course Direction KTS MPH feet Rate Location/Type
09:06AM 36.0253 -95.9861 212° Southwest 89 102 1,200  Level Kansas City Center
09:06AM 36.0214 -95.9892 212° Southwest 77 89 1,400 720 Climbing Kansas City Center
09:07AM 36.0044 -95.9864 172° South 64 74 2,200 660 Climbing Kansas City Center
09:08AM 35.9933 -95.9783 150° Southeast 66 76 2,700 600 Climbing Kansas City Center
09:09AM 35.9767 -95.9650 147° Southeast 68 78 3,400 720 Climbing Kansas City Center
09:10AM 35.9553 -95.9489 149° Southeast 73 84 4,200 660 Climbing Kansas City Center
09:11AM 35.9378 -95.9339 145° Southeast 76 87 4,800 540 Climbing Kansas City Center
09:12AM 35.9192 -95.9203 149° Southeast 77 89 5,400 480 Climbing Kansas City Center
09:13AM 35.8981 -95.9056 151° Southeast 82 94 5,900 240 Climbing Kansas City Center
09:14AM 35.8747 -95.8878 148° Southeast 91 105 6,000  Climbing Kansas City Center
09:15AM 35.8386 -95.8633 151° Southeast 122 140 5,900  Descending Kansas City Center
09:16AM 35.8172 -95.8467 148° Southeast 112 129 6,000  Climbing Kansas City Center
09:17AM 35.7825 -95.8217 150° Southeast 118 136 5,900  Descending Kansas City Center
09:18AM 35.7547 -95.8011 149° Southeast 118 136 6,000  Climbing Kansas City Center
09:19AM 35.7267 -95.7789 147° Southeast 118 136 6,000  Level Kansas City Center
09:20AM 35.6975 -95.7581 150° Southeast 120 138 6,000  Level Kansas City Center
09:21AM 35.6658 -95.7553 176° South 117 135 6,000  Level Kansas City Center
09:22AM 35.6333 -95.7583 184° South 118 136 6,000  Level Kansas City Center
09:23AM 35.6000 -95.7564 177° South 119 137 6,000  Level Kansas City Center
09:24AM 35.5664 -95.7539 177° South 120 138 6,000  Level Kansas City Center
09:25AM 35.5275 -95.7547 181° South 117 135 6,000  Level Kansas City Center
09:26AM 35.4933 -95.7572 183° South 120 138 6,000 -60 Level Kansas City Center
09:27AM 35.4619 -95.7569 180° South 122 140 5,900  Descending Fort Worth Center
09:28AM 35.4286 -95.7578 181° South 122 140 6,000  Climbing Fort Worth Center
09:29AM 35.3953 -95.7583 181° South 122 140 6,000  Level Fort Worth Center
09:30AM 35.3642 -95.7589 181° South 122 140 6,000  Level Fort Worth Center
09:31AM 35.3308 -95.7594 181° South 122 140 6,000  Level Fort Worth Center
09:32AM 35.2994 -95.7653 189° South 122 140 6,000  Level Fort Worth Center
09:33AM 35.2661 -95.7633 177° South 122 140 6,000  Level Fort Worth Center
09:34AM 35.2347 -95.7664 185° South 122 140 6,000  Level Fort Worth Center
09:35AM 35.2014 -95.7647 178° South 122 140 6,000  Level Fort Worth Center
09:36AM 35.1681 -95.7678 184° South 122 140 6,000  Level Fort Worth Center
09:37AM 35.1369 -95.7711 185° South 122 140 6,000  Level Fort Worth Center
09:38AM 35.1056 -95.7639 169° South 122 140 6,000  Level Fort Worth Center
09:39AM 35.0722 -95.7722 192° South 122 140 6,000  Level Fort Worth Center
09:40AM 35.0408 -95.7728 181° South 122 140 6,000  Level Fort Worth Center
09:41AM 35.0097 -95.7761 185° South 122 140 6,000  Level Fort Worth Center
09:42AM 34.9722 -95.7767 181° South 122 140 6,000  Level Fort Worth Center
09:43AM 34.9408 -95.7772 181° South 122 140 6,000  Level Fort Worth Center
09:44AM 34.9097 -95.7831 189° South 122 140 6,000  Level Fort Worth Center
09:45AM 34.8700 -95.7861 184° South 130 150 6,000  Level Fort Worth Center
09:46AM 34.8408 -95.7867 181° South 130 150 6,000  Level Fort Worth Center
09:47AM 34.8097 -95.7975 196° South 120 138 6,000  Level Fort Worth Center
09:48AM 34.7786 -95.8133 203° Southwest 120 138 6,000  Level Fort Worth Center
09:49AM 34.7497 -95.8367 214° Southwest 125 144 6,000  Level Fort Worth Center
09:50AM 34.7186 -95.8522 202° Southwest 119 137 6,000  Level Fort Worth Center
09:51AM 34.6958 -95.8628 201° Southwest 113 130 6,000  Level Fort Worth Center
09:52AM 34.6669 -95.8836 211° Southwest 113 130 6,000  Level Fort Worth Center
09:53AM 34.6378 -95.8967 200° South 113 130 6,000  Level Fort Worth Center
09:54AM 34.6108 -95.9147 209° Southwest 118 136 6,000  Level Fort Worth Center
09:55AM 34.5797 -95.9281 199° South 118 136 6,000  Level Fort Worth Center
09:56AM 34.5489 -95.9486 209° Southwest 113 130 6,000  Level Fort Worth Center
09:57AM 34.5156 -95.9744 213° Southwest 126 145 6,000  Level Fort Worth Center
09:58AM 34.4844 -95.9900 202° Southwest 120 138 6,000  Level Fort Worth Center
09:59AM 34.4556 -96.0081 207° Southwest 129 148 6,100  Climbing Fort Worth Center
10:00AM 34.4286 -96.0186 198° South 119 137 6,100  Level Fort Worth Center
10:01AM 34.4017 -96.0417 215° Southwest 114 131 6,100  Level Fort Worth Center
10:02AM 34.3706 -96.0600 206° Southwest 114 131 6,100  Level Fort Worth Center
10:03AM 34.3394 -96.0781 206° Southwest 114 131 6,100  Level Fort Worth Center
10:04AM 34.3064 -96.1036 213° Southwest 121 139 6,100  Level Fort Worth Center
10:05AM 34.2814 -96.1117 195° South 121 139 6,100  Level Fort Worth Center
10:06AM 34.2461 -96.1347 208° Southwest 126 145 6,100  Level Fort Worth Center
10:07AM 34.2233 -96.1525 213° Southwest 121 139 6,100  Level Fort Worth Center
10:08AM 34.1903 -96.1681 201° Southwest 116 133 6,100  Level Fort Worth Center
10:09AM 34.1611 -96.1861 207° Southwest 115 132 6,100  Level Fort Worth Center
10:10AM 34.1300 -96.2067 209° Southwest 123 142 6,100  Level Fort Worth Center
10:11AM 34.1072 -96.2194 205° Southwest 113 130 6,100 -60 Level Fort Worth Center
10:12AM 34.0697 -96.2350 199° South 113 130 6,000 -60 Descending Fort Worth Center
10:13AM 34.0408 -96.2581 213° Southwest 118 136 6,000  Level Fort Worth Center
10:14AM 34.0117 -96.2758 207° Southwest 118 136 6,000  Level Fort Worth Center
10:15AM 33.9825 -96.2839 193° South 113 130 6,000  Level Fort Worth Center
10:16AM 33.9514 -96.3067 211° Southwest 113 130 6,000  Level Fort Worth Center
10:17AM 33.9225 -96.3247 207° Southwest 118 136 6,000  Level Fort Worth Center
10:18AM 33.8933 -96.3425 207° Southwest 118 136 6,000  Level Fort Worth Center
10:19AM 33.8683 -96.3553 203° Southwest 113 130 6,000  Level Fort Worth Center
10:20AM 33.8414 -96.3756 212° Southwest 113 130 6,000  Level Fort Worth Center
10:21AM 33.8164 -96.3883 203° Southwest 113 130 6,000  Level Fort Worth Center
10:22AM 33.7853 -96.4039 203° Southwest 113 130 6,000  Level Fort Worth Center
10:23AM 33.7583 -96.4167 202° Southwest 113 130 6,000  Level Fort Worth Center
10:24AM 33.7272 -96.4344 205° Southwest 113 130 6,000  Level Fort Worth Center
10:25AM 33.7022 -96.4497 207° Southwest 113 130 6,000  Level Fort Worth Center
10:26AM 33.6731 -96.4700 210° Southwest 118 136 6,000  Level Fort Worth Center
10:27AM 33.6483 -96.4853 207° Southwest 118 136 6,000  Level Fort Worth Center
10:28AM 33.6169 -96.5056 208° Southwest 118 136 6,000  Level Fort Worth Center
10:29AM 33.5900 -96.5183 202° Southwest 111 128 6,000  Level Fort Worth Center
10:30AM 33.5589 -96.5361 205° Southwest 111 128 6,000  Level Fort Worth Center
10:31AM 33.5339 -96.5486 203° Southwest 111 128 6,000  Level Fort Worth Center
10:32AM 33.5006 -96.5689 207° Southwest 111 128 6,000  Level Fort Worth Center
10:33AM 33.4714 -96.5842 204° Southwest 111 128 6,000  Level Fort Worth Center
10:34AM 33.4464 -96.5969 203° Southwest 111 128 6,000 -180 Level Fort Worth Center
10:35AM 33.4194 -96.6269 223° Southwest 116 133 5,700 -600 Descending Fort Worth Center
10:36AM 33.3989 -96.6497 223° Southwest 122 140 4,900 -900 Descending Fort Worth Center
10:37AM 33.3656 -96.6747 212° Southwest 127 146 4,000 -480 Descending Fort Worth Center
10:38AM 33.3428 -96.6850 201° Southwest 113 130 4,000 -120 Level Fort Worth Center
10:39AM 33.3114 -96.7025 205° Southwest 113 130 3,800 -540 Descending Fort Worth Center
10:40AM 33.2867 -96.7175 207° Southwest 113 130 3,000 -420 Descending Fort Worth Center
10:41AM 33.2594 -96.7403 215° Southwest 108 124 3,000  Level Fort Worth Center
10:42AM 33.2367 -96.7528 205° Southwest 102 117 3,000  Level Fort Worth Center
10:43AM 33.2094 -96.7703 208° Southwest 102 117 3,000  Level Fort Worth Center
10:46AM 33.1500 -96.8000 203° Southwest 105 121 3,000  Level Dallas / Fort Worth TRACON
10:47AM 33.1167 -96.8167 203° Southwest 109 125 3,000 -180 Level Dallas / Fort Worth TRACON
10:48AM 33.0833 -96.8167 180° South 136 157 2,700 -540 Descending Dallas / Fort Worth TRACON
10:49AM 33.0500 -96.8333 203° Southwest 134 154 2,000 -360 Descending Dallas / Fort Worth TRACON
10:50AM 33.0333 -96.8500 220° Southwest 116 133 2,000 -240 Level Dallas / Fort Worth TRACON
10:51AM 33.0000 -96.8500 180° South 96 110 1,600 -660 Descending Dallas / Fort Worth TRACON
10:52AM 32.9833 -96.8333 140° Southeast 57 66 800 -840 Descending Dallas / Fort Worth TRACON
10:54AM 32.9667 -96.8333 164° South  Level FlightAware Approximate